Aledo, Texas
Current Conditions -  °F | °C
As of 8:52 PM on Tuesday 21 Oct 2014 (Local Time) from KNFW Reporting Station
Clear Clear  
Wind Chill: 75°   Ceiling: Unl
Heat Index: 75°   Visibility: 10mi
Dew Point: 55°   Wind: 6mph
Humidity: 50%   Direction: 130°SE
Pressure: 30.09"   Gusts: NA
Location:  32.7°N, 97.6°W
Report Text: KNFW 220152Z 13005KT 10SM CLR 24/13 A3009 RMK AO2 SLP171 T02390128 CHINO N VISNO N $
Loading
Personal Weather Stations






























Interactive Weather Map New forecast layout! Learn more

10-Day Weather Forecast

Advertisements
Track Severe Weather on mobile